Vancouver International Airport
CYVR : now visible

Airfield :











YOU CAN JOIN US ON...

 
LOGIN :

Register | Disclaimer

   EN    FR    IT 

 









Legend :    VFR   Marginal VFR   IFR   Intensive IFR   Very Intensive IFR
Visi :
Ceiling :
>= 8 km
>= 3000ft
5 to 8 km
1000 to 3000 ft
1500m to 5 km
500 to 1000 ft
800 to 1500m
200 to 500 ft
< 800m
< 200 ft
Symbols :   Thunderstorms  Fog  Heavy snow  Heavy precipitations  Wind > 20 kt






- Airport Elevation : 14 ft
- IATA code : YVR


CYVR - Vancouver International

CURRENT METAR :
  • 201200Z 09005KT 15SM -RA BKN045 OVC078 06/05 A2989 RMK SC5AC3 SLP123

EXPIRED METARs :
  • 201100Z 12006KT 15SM -RA SCT047 OVC066 06/05 A2993 RMK SC3AC5 PRESRR SLP135
  • 201000Z 06003KT 040V110 15SM -RA FEW061 OVC074 06/05 A2992 RMK SC1AC7 SLP133

TAF TAF CYVR
Valid from the 20 at 12:00 until the 21 at 18:00 UTC


201138Z 2012/2118 08006KT P6SM SCT040 OVC080
TEMPO 2012/2015 P6SM -SHRA SCT006 OVC040
FM201500 08010KT P6SM -RA SCT006 SCT020 OVC040
TEMPO 2015/2102 4SM -RA BR SCT006 OVC020
PROB30 2015/2020 2SM -RA BR OVC006
FM210200 09008KT P6SM FEW020 BKN080 OVC200
FM211100 10015KT P6SM -RA OVC040
TEMPO 2111/2118 4SM -RA BR OVC020 RMK NXT FCST BY 201500Z



MET'MAP, your aeronautical weather chart ! - Copyright ORBIFLY December 2007 - Disclaimer

ORBIFLY MET'MAP TEAM :

Programming & Development : Alexandra Zaïnal
Concept & original design : Baudouin d'Aumeries
Assistance for programming : Marc-Olivier Méhu
Technical & hardware support : Manuel Goepfert

Contact : metmap@orbifly.com




SOURCES & CREDITS :

   NOAA       Earth
Advisory